Terminal Aerodrome Forecast
Issued by NWS Charleston, WV

Home | Current Version | Previous Version | Text Only | Print | Product List | Glossary On
Versions: 1 2 3 4 5 6 7 8 9 10 11 12 13 14 15 16 17 18 19 20 21 22 23 24 25 26 27
075
FTUS41 KRLX 191926 AAA
TAFEKN
TAF AMD
KEKN 191926Z 1919/2018 27006KT P6SM SKC
     FM192100 28005KT P6SM SCT050
     FM200400 00000KT 5SM BR FEW070
     FM200700 00000KT 1/4SM FG VV001
     FM201230 00000KT 2SM BR BKN001
     FM201330 00000KT P6SM FEW250=

USA.gov is the U.S. government's official web portal to all federal, state and local government web resources and services.